Time;durP1;ratioP1;P1;durP2;ratioP2;P2;SDS_P1;SDS_P2;PMS_P1;PMS_P2;Temp;Humidity;BMP_temperature;BMP_pressure;BME280_temperature;BME280_humidity;BME280_pressure;Samples;Min_cycle;Max_cycle;Signal;HPM_P1;HPM_P2
2023/05/21 00:02:22;;;;;;;9.80;9.10;;;;;;;19.67;58.95;98578.24;106048;1260;69336;-78
2023/05/21 00:04:50;;;;;;;10.00;9.20;;;;;;;19.68;58.99;98576.52;106004;1258;74883;-78
2023/05/21 00:07:19;;;;;;;10.50;9.60;;;;;;;19.67;58.98;98578.45;105970;1254;61959;-78
2023/05/21 00:09:46;;;;;;;11.00;10.00;;;;;;;19.68;59.00;98576.58;106007;1253;62271;-78
2023/05/21 00:12:14;;;;;;;10.00;9.10;;;;;;;19.68;58.97;98573.09;106057;1257;75953;-78
2023/05/21 00:14:42;;;;;;;9.40;8.60;;;;;;;19.68;58.99;98575.45;106022;1260;70372;-78
2023/05/21 00:17:09;;;;;;;10.40;9.50;;;;;;;19.68;59.03;98575.81;106028;1254;74836;-78
2023/05/21 00:19:38;;;;;;;10.30;9.40;;;;;;;19.68;59.00;98576.37;106083;1254;61419;-78
2023/05/21 00:22:06;;;;;;;9.90;9.10;;;;;;;19.68;58.99;98574.19;106048;1255;61325;-79
2023/05/21 00:24:33;;;;;;;10.30;9.40;;;;;;;19.68;58.96;98572.76;106037;1260;76566;-78
2023/05/21 00:27:01;;;;;;;10.50;9.60;;;;;;;19.67;58.96;98574.08;105971;1257;68986;-78
2023/05/21 00:29:29;;;;;;;10.80;9.90;;;;;;;19.68;58.91;98574.19;106003;1255;73827;-78
2023/05/21 00:31:56;;;;;;;11.00;10.10;;;;;;;19.67;58.98;98579.29;106017;1254;62317;-78
2023/05/21 00:34:25;;;;;;;10.20;9.30;;;;;;;19.68;58.96;98582.40;106030;1254;61449;-78
2023/05/21 00:36:54;;;;;;;10.70;9.80;;;;;;;19.67;58.96;98580.05;106024;1253;75803;-78
2023/05/21 00:39:23;;;;;;;9.90;9.10;;;;;;;19.67;58.88;98578.98;106021;1254;70535;-78
2023/05/21 00:41:50;;;;;;;9.90;9.10;;;;;;;19.67;58.94;98576.80;106221;1255;73494;-78
2023/05/21 00:44:19;;;;;;;9.80;9.00;;;;;;;19.67;58.92;98576.27;106026;1260;61260;-78
2023/05/21 00:46:47;;;;;;;9.90;9.10;;;;;;;19.67;58.90;98572.98;106047;1253;62192;-78
2023/05/21 00:49:15;;;;;;;9.80;9.00;;;;;;;19.68;58.93;98573.48;106002;1258;76727;-78
2023/05/21 00:51:43;;;;;;;9.20;8.50;;;;;;;19.67;59.00;98567.71;105875;1253;70707;-78
2023/05/21 00:54:11;;;;;;;9.40;8.70;;;;;;;19.66;58.95;98569.79;105997;1254;74914;-79
2023/05/21 00:56:39;;;;;;;10.00;9.20;;;;;;;19.67;58.96;98568.25;105807;1257;62471;-78
2023/05/21 00:59:07;;;;;;;9.30;8.60;;;;;;;19.67;58.99;98564.48;105901;1253;62533;-80
2023/05/21 01:01:35;;;;;;;10.60;9.60;;;;;;;19.67;58.90;98565.36;105900;1254;76832;-78
2023/05/21 01:04:03;;;;;;;9.80;9.00;;;;;;;19.67;58.98;98566.96;105835;1254;69762;-78
2023/05/21 01:06:34;;;;;;;9.90;8.90;;;;;;;19.67;58.92;98565.90;105965;1254;75046;-78
2023/05/21 01:09:03;;;;;;;9.60;8.90;;;;;;;19.67;58.89;98569.00;105941;1254;62505;-78
2023/05/21 01:11:40;;;;;;;9.50;8.70;;;;;;;19.67;58.90;98566.29;105958;1254;61325;-78
2023/05/21 01:14:08;;;;;;;10.00;9.20;;;;;;;19.67;58.92;98566.29;105939;1259;76331;-78
2023/05/21 01:16:36;;;;;;;9.30;8.50;;;;;;;19.67;58.96;98566.27;105840;1263;69600;-78
2023/05/21 01:19:04;;;;;;;8.80;8.10;;;;;;;19.67;58.94;98568.11;105773;1257;74493;-78
2023/05/21 01:21:36;;;;;;;9.20;8.50;;;;;;;19.67;58.90;98565.19;105608;1262;62324;-78
2023/05/21 01:24:06;;;;;;;9.60;8.80;;;;;;;19.67;58.94;98564.85;105961;1254;61501;-78
2023/05/21 01:26:37;;;;;;;10.00;9.20;;;;;;;19.66;59.00;98560.17;105922;1254;76805;-78
2023/05/21 01:29:12;;;;;;;9.80;9.00;;;;;;;19.67;58.90;98558.68;105974;1254;70813;-78
2023/05/21 01:32:18;;;;;;;9.70;8.90;;;;;;;19.66;58.86;98552.15;105967;1256;74021;-78
2023/05/21 01:35:04;;;;;;;10.10;9.20;;;;;;;19.66;58.96;98545.67;105752;1254;61310;-77
2023/05/21 01:37:54;;;;;;;9.70;8.90;;;;;;;19.66;58.91;98543.66;105880;1254;62632;-77
2023/05/21 01:40:28;;;;;;;8.70;7.90;;;;;;;19.66;58.88;98548.04;105927;1254;75414;-77
2023/05/21 01:42:56;;;;;;;9.20;8.50;;;;;;;19.66;58.92;98543.14;105926;1259;69594;-77
2023/05/21 01:45:24;;;;;;;9.50;8.70;;;;;;;19.65;58.93;98542.63;105887;1255;74834;-77
2023/05/21 01:47:53;;;;;;;9.10;8.40;;;;;;;19.66;58.91;98542.63;105832;1254;62610;-77
2023/05/21 01:50:24;;;;;;;9.50;8.70;;;;;;;19.66;58.92;98543.17;105897;1259;62209;-78
2023/05/21 01:52:59;;;;;;;9.20;8.40;;;;;;;19.65;58.86;98542.29;105850;1254;75679;-78
2023/05/21 01:55:29;;;;;;;9.30;8.50;;;;;;;19.66;58.87;98541.88;106317;1254;71044;-77
2023/05/21 01:57:58;;;;;;;8.30;7.70;;;;;;;19.66;58.87;98538.42;106295;1255;73440;-77
2023/05/21 02:00:31;;;;;;;8.80;8.10;;;;;;;19.66;58.82;98535.33;105801;1256;61801;-77
2023/05/21 02:02:59;;;;;;;8.80;8.10;;;;;;;19.66;58.92;98531.87;106038;1254;61237;-79
2023/05/21 02:05:28;;;;;;;9.30;8.50;;;;;;;19.66;58.87;98532.63;106025;1253;75305;-76
2023/05/21 02:07:56;;;;;;;9.20;8.50;;;;;;;19.66;58.86;98533.70;105994;1259;69707;-77
2023/05/21 02:10:23;;;;;;;8.90;8.20;;;;;;;19.66;58.92;98536.77;105915;1253;74236;-77
2023/05/21 02:12:51;;;;;;;8.80;8.10;;;;;;;19.66;58.88;98533.51;105911;1257;61275;-77
2023/05/21 02:15:19;;;;;;;9.10;8.40;;;;;;;19.66;58.85;98532.73;105922;1254;62373;-77
2023/05/21 02:17:50;;;;;;;9.30;8.40;;;;;;;19.66;58.82;98530.41;105954;1253;75212;-78
2023/05/21 02:20:18;;;;;;;8.60;8.00;;;;;;;19.66;58.82;98525.91;106038;1254;70817;-77
2023/05/21 02:22:46;;;;;;;8.20;7.50;;;;;;;19.66;58.89;98527.70;106041;1254;74114;-78
2023/05/21 02:25:18;;;;;;;8.10;7.50;;;;;;;19.66;58.84;98526.23;105890;1253;62509;-78
2023/05/21 02:27:46;;;;;;;8.30;7.70;;;;;;;19.66;58.80;98527.36;105970;1260;61176;-78
2023/05/21 02:30:15;;;;;;;8.80;8.00;;;;;;;19.66;58.80;98527.89;105994;1254;76468;-78
2023/05/21 02:32:42;;;;;;;8.70;8.00;;;;;;;19.66;58.87;98526.27;106017;1255;69563;-78
2023/05/21 02:35:11;;;;;;;7.80;7.20;;;;;;;19.65;58.84;98525.02;106040;1253;74981;-77
2023/05/21 02:37:39;;;;;;;8.70;8.00;;;;;;;19.66;58.86;98527.87;106016;1258;61338;-78
2023/05/21 02:40:08;;;;;;;8.30;7.60;;;;;;;19.66;58.77;98524.64;106014;1254;62419;-77
2023/05/21 02:42:38;;;;;;;8.90;8.10;;;;;;;19.66;58.85;98523.55;106012;1260;76770;-77
2023/05/21 02:45:08;;;;;;;8.40;7.70;;;;;;;19.66;58.83;98522.64;106290;1253;69401;-77
2023/05/21 02:47:37;;;;;;;9.00;8.30;;;;;;;19.66;58.83;98523.52;106642;1258;73266;-77
2023/05/21 02:50:07;;;;;;;8.80;8.10;;;;;;;19.66;58.87;98522.40;107131;1253;62666;-78
2023/05/21 02:52:38;;;;;;;8.60;7.90;;;;;;;19.66;58.85;98521.34;106817;1253;62316;-78
2023/05/21 02:55:07;;;;;;;8.50;7.80;;;;;;;19.66;58.87;98520.23;107212;1253;76047;-78
2023/05/21 02:57:35;;;;;;;8.40;7.70;;;;;;;19.67;58.79;98519.39;107083;1253;69583;-78
2023/05/21 03:00:04;;;;;;;7.60;7.00;;;;;;;19.68;58.80;98516.09;107202;1253;73830;-78
2023/05/21 03:02:33;;;;;;;8.40;7.80;;;;;;;19.67;58.79;98515.73;107232;1253;61532;-78
2023/05/21 03:05:01;;;;;;;7.90;7.30;;;;;;;19.68;58.81;98517.11;107082;1258;61483;-78
2023/05/21 03:07:29;;;;;;;8.10;7.40;;;;;;;19.69;58.80;98517.59;106794;1258;75682;-78
2023/05/21 03:09:58;;;;;;;8.10;7.40;;;;;;;19.70;58.80;98518.78;107291;1254;68650;-78
2023/05/21 03:12:25;;;;;;;8.00;7.40;;;;;;;19.71;58.67;98514.67;107220;1253;74622;-78
2023/05/21 03:14:55;;;;;;;8.00;7.30;;;;;;;19.70;58.69;98517.80;107260;1258;62442;-78
2023/05/21 03:17:23;;;;;;;8.30;7.70;;;;;;;19.72;58.74;98520.36;107231;1253;61198;-77
2023/05/21 03:19:50;;;;;;;8.40;7.70;;;;;;;19.72;58.59;98519.61;107330;1253;76517;-78
2023/05/21 03:22:18;;;;;;;8.50;7.80;;;;;;;19.72;58.70;98522.47;107291;1253;69624;-78
2023/05/21 03:24:47;;;;;;;7.50;6.90;;;;;;;19.73;58.59;98520.23;107181;1255;74664;-78
2023/05/21 03:27:16;;;;;;;8.30;7.60;;;;;;;19.73;58.52;98518.03;106903;1260;61258;-78
2023/05/21 03:29:44;;;;;;;7.70;7.10;;;;;;;19.75;58.55;98518.80;106709;1254;61331;-78
2023/05/21 03:32:12;;;;;;;7.90;7.30;;;;;;;19.75;58.57;98518.74;106167;1253;76479;-78
2023/05/21 03:34:40;;;;;;;8.20;7.60;;;;;;;19.75;58.57;98523.29;106117;1253;70427;-78
2023/05/21 03:37:08;;;;;;;8.50;7.80;;;;;;;19.76;58.56;98527.61;106717;1258;73618;-78
2023/05/21 03:39:35;;;;;;;8.40;7.70;;;;;;;19.76;58.48;98522.54;106255;1253;62374;-78
2023/05/21 03:42:05;;;;;;;7.90;7.20;;;;;;;19.76;58.45;98527.56;105946;1254;61340;-78
2023/05/21 03:44:40;;;;;;;7.60;7.00;;;;;;;19.76;58.46;98527.22;105977;1253;76807;-78
2023/05/21 03:47:30;;;;;;;7.90;7.30;;;;;;;19.76;58.54;98533.41;106072;1258;70820;-78
2023/05/21 03:49:58;;;;;;;8.10;7.40;;;;;;;19.75;58.41;98533.60;106042;1256;73165;-78
2023/05/21 03:52:26;;;;;;;8.40;7.70;;;;;;;19.75;58.46;98533.44;106021;1259;61234;-78
2023/05/21 03:54:54;;;;;;;7.80;7.20;;;;;;;19.75;58.44;98532.61;106864;1257;61215;-79
2023/05/21 03:57:22;;;;;;;7.40;6.90;;;;;;;19.75;58.45;98531.48;106179;1260;75659;-78
2023/05/21 03:59:50;;;;;;;7.20;6.60;;;;;;;19.75;58.46;98534.17;105953;1260;69934;-78
2023/05/21 04:02:17;;;;;;;8.20;7.50;;;;;;;19.75;58.47;98529.64;105984;1254;74848;-78
2023/05/21 04:04:46;;;;;;;7.50;6.90;;;;;;;19.75;58.48;98532.04;105971;1254;62062;-78
2023/05/21 04:07:14;;;;;;;7.10;6.60;;;;;;;19.74;58.48;98535.20;105914;1254;61232;-78
2023/05/21 04:09:41;;;;;;;7.50;6.80;;;;;;;19.74;58.48;98534.71;106020;1255;74669;-78
2023/05/21 04:12:09;;;;;;;8.20;7.50;;;;;;;19.74;58.45;98534.34;105950;1260;68571;-78
2023/05/21 04:14:37;;;;;;;7.10;6.50;;;;;;;19.73;58.34;98531.48;105991;1254;74774;-78
2023/05/21 04:17:04;;;;;;;6.90;6.40;;;;;;;19.73;58.45;98530.93;105859;1254;62350;-78
2023/05/21 04:19:32;;;;;;;7.20;6.60;;;;;;;19.73;58.43;98529.15;106032;1255;61360;-78
2023/05/21 04:22:02;;;;;;;7.20;6.60;;;;;;;19.73;58.42;98532.60;106031;1255;76594;-78
2023/05/21 04:24:30;;;;;;;7.40;6.90;;;;;;;19.73;58.58;98529.90;105967;1254;70700;-78
2023/05/21 04:27:08;;;;;;;7.00;6.50;;;;;;;19.73;58.48;98527.39;105989;1260;74955;-78
2023/05/21 04:29:36;;;;;;;7.20;6.60;;;;;;;19.72;58.44;98527.65;105963;1257;61750;-78
2023/05/21 04:32:05;;;;;;;7.30;6.80;;;;;;;19.72;58.46;98524.55;105980;1254;62365;-78
2023/05/21 04:34:33;;;;;;;7.10;6.50;;;;;;;19.72;58.41;98526.94;105954;1254;76049;-78
2023/05/21 04:37:01;;;;;;;7.10;6.50;;;;;;;19.72;58.41;98528.36;106021;1260;70215;-78
2023/05/21 04:39:30;;;;;;;7.50;6.90;;;;;;;19.72;58.47;98526.05;105926;1254;74573;-79
2023/05/21 04:41:57;;;;;;;6.80;6.20;;;;;;;19.71;58.44;98529.77;106005;1260;61401;-78
2023/05/21 04:44:25;;;;;;;7.20;6.60;;;;;;;19.71;58.47;98533.74;105611;1261;61351;-78
2023/05/21 04:46:53;;;;;;;6.90;6.30;;;;;;;19.71;58.48;98539.91;105990;1260;76713;-77
2023/05/21 04:49:21;;;;;;;6.90;6.40;;;;;;;19.71;58.49;98541.73;105877;1254;70747;-78
2023/05/21 04:51:49;;;;;;;7.40;6.80;;;;;;;19.71;58.45;98541.73;105959;1258;74418;-78
2023/05/21 04:54:16;;;;;;;7.00;6.30;;;;;;;19.71;58.45;98539.95;105977;1254;62332;-78
2023/05/21 04:56:46;;;;;;;6.80;6.30;;;;;;;19.70;58.42;98534.52;105876;1254;61387;-78
2023/05/21 04:59:14;;;;;;;6.80;6.20;;;;;;;19.70;58.59;98534.17;105868;1254;76791;-79
2023/05/21 05:01:42;;;;;;;6.70;6.10;;;;;;;19.70;58.50;98532.21;105998;1258;69527;-79
2023/05/21 05:04:10;;;;;;;5.80;5.40;;;;;;;19.70;58.47;98529.68;106046;1253;74808;-78
2023/05/21 05:06:38;;;;;;;7.20;6.70;;;;;;;19.69;58.53;98526.81;105979;1254;62278;-78
2023/05/21 05:09:06;;;;;;;7.20;6.50;;;;;;;19.70;58.55;98525.36;106093;1253;61221;-78
2023/05/21 05:11:33;;;;;;;7.00;6.50;;;;;;;19.69;58.51;98524.33;105990;1260;76526;-79
2023/05/21 05:14:01;;;;;;;6.70;6.20;;;;;;;19.69;58.53;98526.30;105994;1253;70726;-78
2023/05/21 05:16:29;;;;;;;6.70;6.10;;;;;;;19.69;58.50;98529.95;105987;1253;73710;-78
2023/05/21 05:18:57;;;;;;;7.10;6.50;;;;;;;19.69;58.62;98531.17;105987;1256;62007;-79
2023/05/21 05:21:25;;;;;;;6.10;5.60;;;;;;;19.69;58.52;98536.45;105966;1253;62378;-78
2023/05/21 05:23:53;;;;;;;6.50;6.00;;;;;;;19.69;58.48;98539.55;105986;1253;74549;-78
2023/05/21 05:26:25;;;;;;;6.80;6.20;;;;;;;19.68;58.51;98540.52;106004;1259;70914;-78
2023/05/21 05:28:53;;;;;;;6.30;5.60;;;;;;;19.69;58.47;98541.61;106040;1253;74514;-79
2023/05/21 05:31:21;;;;;;;6.40;5.90;;;;;;;19.68;58.52;98539.41;106007;1253;61371;-78
2023/05/21 05:33:49;;;;;;;6.40;5.80;;;;;;;19.68;58.55;98545.61;105801;1253;61224;-78
2023/05/21 05:36:16;;;;;;;6.30;5.80;;;;;;;19.68;58.50;98542.35;105912;1253;76020;-79
2023/05/21 05:38:45;;;;;;;6.70;6.10;;;;;;;19.68;58.52;98539.29;105960;1253;70839;-78
2023/05/21 05:41:13;;;;;;;7.20;6.60;;;;;;;19.68;58.50;98543.98;105926;1256;74208;-78
2023/05/21 05:43:40;;;;;;;6.70;6.10;;;;;;;19.68;58.49;98545.82;105895;1256;62682;-79
2023/05/21 05:46:09;;;;;;;6.40;5.90;;;;;;;19.68;58.47;98543.84;105998;1260;61605;-78
2023/05/21 05:48:36;;;;;;;6.40;5.90;;;;;;;19.68;58.50;98542.52;105900;1260;76616;-78
2023/05/21 05:51:04;;;;;;;6.10;5.60;;;;;;;19.69;58.49;98540.85;106040;1254;69663;-79
2023/05/21 05:53:32;;;;;;;6.30;5.80;;;;;;;19.69;58.50;98539.20;105986;1256;74824;-79
2023/05/21 05:55:59;;;;;;;6.40;5.90;;;;;;;19.68;58.48;98538.36;106211;1253;61456;-77
2023/05/21 05:58:28;;;;;;;7.00;6.40;;;;;;;19.68;58.52;98534.71;106799;1254;61117;-78
2023/05/21 06:01:05;;;;;;;6.50;6.00;;;;;;;19.68;58.53;98534.23;105976;1260;76710;-78
2023/05/21 06:03:34;;;;;;;7.00;6.40;;;;;;;19.68;58.55;98530.36;106048;1253;70785;-78
2023/05/21 06:06:07;;;;;;;7.40;6.80;;;;;;;19.69;58.53;98531.41;105991;1253;73467;-78
2023/05/21 06:08:35;;;;;;;6.90;6.40;;;;;;;19.69;58.49;98532.66;105946;1260;62353;-78
2023/05/21 06:11:04;;;;;;;7.50;6.90;;;;;;;19.68;58.51;98534.34;105891;1254;61284;-79
2023/05/21 06:13:32;;;;;;;7.30;6.70;;;;;;;19.69;58.51;98532.33;105974;1253;75867;-81
2023/05/21 06:16:01;;;;;;;7.30;6.70;;;;;;;19.69;58.52;98531.89;106152;1254;70856;-78
2023/05/21 06:18:29;;;;;;;7.90;7.20;;;;;;;19.69;58.54;98533.02;105719;1256;74763;-78
2023/05/21 06:20:57;;;;;;;7.50;6.90;;;;;;;19.69;58.58;98529.00;105810;1256;61348;-79
2023/05/21 06:23:25;;;;;;;7.10;6.50;;;;;;;19.70;58.57;98526.08;105933;1258;62359;-79
2023/05/21 06:25:53;;;;;;;7.60;7.00;;;;;;;19.70;58.52;98523.89;105822;1254;76684;-79
2023/05/21 06:28:21;;;;;;;7.80;7.20;;;;;;;19.69;58.51;98522.80;105742;1258;69440;-79
2023/05/21 06:30:49;;;;;;;7.70;7.10;;;;;;;19.70;58.47;98525.45;105772;1254;74178;-80
2023/05/21 06:33:17;;;;;;;8.50;7.80;;;;;;;19.70;58.58;98525.11;105678;1260;61405;-80
2023/05/21 06:35:45;;;;;;;8.10;7.30;;;;;;;19.70;58.51;98524.36;105756;1255;62175;-80
2023/05/21 06:38:13;;;;;;;7.80;7.10;;;;;;;19.70;58.48;98519.33;105792;1254;75725;-79
2023/05/21 06:40:43;;;;;;;7.90;7.30;;;;;;;19.70;58.52;98520.04;105833;1254;69888;-79
2023/05/21 06:43:16;;;;;;;8.60;7.80;;;;;;;19.70;58.51;98522.56;105677;1257;73564;-79
2023/05/21 06:46:02;;;;;;;9.20;8.40;;;;;;;19.69;58.56;98524.96;105618;1260;61235;-79
2023/05/21 06:48:36;;;;;;;7.90;7.30;;;;;;;19.69;58.51;98526.06;105700;1254;62375;-78
2023/05/21 06:51:04;;;;;;;8.90;8.20;;;;;;;19.69;58.56;98523.34;105883;1254;75604;-79
2023/05/21 06:53:32;;;;;;;8.90;8.20;;;;;;;19.70;58.50;98522.42;105779;1254;70791;-80
2023/05/21 06:56:00;;;;;;;8.10;7.50;;;;;;;19.70;58.56;98522.60;105546;1254;71908;-79
2023/05/21 06:58:42;;;;;;;8.70;8.00;;;;;;;19.69;58.57;98522.45;105639;1256;61583;-79
2023/05/21 07:01:10;;;;;;;9.50;8.70;;;;;;;19.69;58.63;98522.48;105647;1254;61368;-80
2023/05/21 07:03:38;;;;;;;8.50;7.80;;;;;;;19.69;58.51;98516.48;105654;1258;76597;-80
2023/05/21 07:06:07;;;;;;;9.70;8.90;;;;;;;19.69;58.58;98517.20;105638;1253;190640;-78
2023/05/21 07:08:35;;;;;;;8.70;8.00;;;;;;;19.69;58.52;98516.67;105735;1256;74619;-79
2023/05/21 07:11:02;;;;;;;8.50;7.90;;;;;;;19.69;58.50;98519.42;105837;1258;62568;-79
2023/05/21 07:13:30;;;;;;;9.80;9.00;;;;;;;19.69;58.58;98519.05;105655;1253;61417;-79
2023/05/21 07:15:58;;;;;;;9.30;8.60;;;;;;;19.69;58.60;98513.77;105806;1261;76763;-79
2023/05/21 07:18:26;;;;;;;10.30;9.40;;;;;;;19.69;58.61;98512.48;105713;1253;70822;-79
2023/05/21 07:20:54;;;;;;;9.70;9.00;;;;;;;19.68;58.50;98511.45;105751;1253;74716;-80
2023/05/21 07:23:22;;;;;;;9.70;8.90;;;;;;;19.69;58.53;98513.96;105744;1256;61695;-79
2023/05/21 07:25:50;;;;;;;9.40;8.60;;;;;;;19.68;58.60;98508.77;105788;1253;61374;-80
2023/05/21 07:28:19;;;;;;;10.90;10.00;;;;;;;19.69;58.60;98507.94;105824;1253;75702;-79
2023/05/21 07:30:48;;;;;;;10.80;9.80;;;;;;;19.68;58.44;98509.81;105956;1258;69472;-79
2023/05/21 07:33:19;;;;;;;10.10;9.20;;;;;;;19.69;58.58;98505.80;105903;1253;74951;-79
2023/05/21 07:35:47;;;;;;;10.70;9.80;;;;;;;19.68;58.45;98500.80;105771;1260;61818;-80
2023/05/21 07:38:16;;;;;;;10.70;9.80;;;;;;;19.68;58.54;98497.66;105937;1258;62515;-79
2023/05/21 07:40:44;;;;;;;10.90;10.00;;;;;;;19.68;58.46;98490.41;105726;1261;75691;-79
2023/05/21 07:43:12;;;;;;;10.60;9.70;;;;;;;19.69;58.45;98491.45;105771;1253;70784;-79
2023/05/21 07:45:40;;;;;;;11.00;10.10;;;;;;;19.69;58.53;98492.11;105815;1260;74982;-81
2023/05/21 07:48:07;;;;;;;11.30;10.30;;;;;;;19.69;58.53;98494.19;105742;1253;62442;-79
2023/05/21 07:50:38;;;;;;;11.50;10.40;;;;;;;19.68;58.54;98487.48;105667;1253;61360;-79
2023/05/21 07:53:06;;;;;;;10.80;9.90;;;;;;;19.69;58.53;98487.61;105847;1257;76433;-79
2023/05/21 07:55:34;;;;;;;11.20;10.30;;;;;;;19.68;58.50;98485.46;106343;1253;70597;-79
2023/05/21 07:58:02;;;;;;;11.60;10.60;;;;;;;19.69;58.49;98485.98;106442;1257;73608;-79
2023/05/21 08:00:34;;;;;;;10.90;10.00;;;;;;;19.70;58.47;98487.21;105814;1253;62436;-79
2023/05/21 08:03:02;;;;;;;10.90;10.00;;;;;;;19.69;58.49;98483.77;105729;1260;61337;-79
2023/05/21 08:05:31;;;;;;;10.80;10.00;;;;;;;19.69;58.49;98486.14;105800;1254;74456;-80
2023/05/21 08:08:00;;;;;;;11.30;10.40;;;;;;;19.70;58.50;98482.65;105846;1256;70956;-79
2023/05/21 08:10:28;;;;;;;11.00;10.00;;;;;;;19.70;58.55;98481.52;105593;1256;74785;-78
2023/05/21 08:12:56;;;;;;;11.60;10.60;;;;;;;19.70;58.48;98477.91;105553;1254;61292;-78
2023/05/21 08:15:24;;;;;;;10.80;10.00;;;;;;;19.70;58.48;98474.81;105688;1254;62476;-78
2023/05/21 08:17:53;;;;;;;11.10;10.10;;;;;;;19.70;58.43;98471.31;105706;1254;77834;-81
2023/05/21 08:20:21;;;;;;;11.40;10.50;;;;;;;19.70;58.40;98470.96;105738;1260;69795;-80
2023/05/21 08:22:50;;;;;;;11.80;10.80;;;;;;;19.70;58.45;98470.79;105849;1260;75191;-80
2023/05/21 08:25:18;;;;;;;11.60;10.60;;;;;;;19.70;58.43;98471.34;105690;1256;62426;-79
2023/05/21 08:27:46;;;;;;;12.30;11.10;;;;;;;19.70;58.36;98470.23;105848;1256;62115;-80
2023/05/21 08:30:15;;;;;;;11.70;10.70;;;;;;;19.70;58.47;98469.88;105605;1254;77253;-80
2023/05/21 08:32:43;;;;;;;11.80;10.90;;;;;;;19.70;58.34;98468.95;105743;1254;69536;-79
2023/05/21 08:35:11;;;;;;;10.90;10.00;;;;;;;19.70;58.34;98470.04;105849;1256;74032;-79
2023/05/21 08:38:00;;;;;;;11.20;10.30;;;;;;;19.70;58.41;98466.43;105846;1254;62379;-79
2023/05/21 08:41:03;;;;;;;10.40;9.60;;;;;;;19.70;58.45;98467.33;105611;1259;62316;-79
2023/05/21 08:43:31;;;;;;;10.80;9.90;;;;;;;19.70;58.39;98471.89;105896;1256;75832;-78
2023/05/21 08:46:02;;;;;;;10.20;9.20;;;;;;;19.70;58.38;98465.52;105903;1256;70817;-79
2023/05/21 08:48:32;;;;;;;10.60;9.80;;;;;;;19.71;58.38;98463.27;105854;1254;74621;-79
2023/05/21 08:51:00;;;;;;;11.10;10.20;;;;;;;19.70;58.42;98464.96;105777;1258;61593;-79
2023/05/21 08:53:32;;;;;;;11.30;10.40;;;;;;;19.70;58.40;98465.48;105598;1254;62320;-79
2023/05/21 08:56:00;;;;;;;11.40;10.40;;;;;;;19.71;58.42;98467.12;105600;1254;75710;-80
2023/05/21 08:58:41;;;;;;;10.80;9.90;;;;;;;19.71;58.45;98468.73;105632;1256;70550;-80
2023/05/21 09:01:09;;;;;;;10.80;9.90;;;;;;;19.71;58.42;98468.73;105546;1263;73495;-79
2023/05/21 09:03:42;;;;;;;10.70;9.80;;;;;;;19.71;58.46;98467.23;105829;1253;62399;-79
2023/05/21 09:06:10;;;;;;;10.80;9.90;;;;;;;19.71;58.43;98469.10;105730;1253;61238;-80
2023/05/21 09:08:38;;;;;;;10.60;9.70;;;;;;;19.71;58.35;98468.35;105836;1253;76363;-80
2023/05/21 09:11:13;;;;;;;9.70;8.90;;;;;;;19.71;58.37;98467.77;105834;1253;71066;-78
2023/05/21 09:13:45;;;;;;;10.80;10.00;;;;;;;19.71;58.40;98465.24;105728;1256;74675;-80
2023/05/21 09:16:19;;;;;;;11.60;10.60;;;;;;;19.71;58.34;98462.84;105809;1253;61395;-80
2023/05/21 09:18:48;;;;;;;10.50;9.70;;;;;;;19.71;58.42;98461.73;106184;1253;62150;-79
2023/05/21 09:21:27;;;;;;;10.60;9.70;;;;;;;19.72;58.30;98453.71;106582;1258;76524;-76
2023/05/21 09:24:13;;;;;;;10.10;9.30;;;;;;;19.72;58.41;98454.95;106173;1253;69537;-77
2023/05/21 09:26:44;;;;;;;10.40;9.50;;;;;;;19.72;58.35;98459.90;106272;1253;73719;-77
2023/05/21 09:29:12;;;;;;;9.80;9.00;;;;;;;19.72;58.41;98455.88;106023;1253;61390;-77
2023/05/21 09:31:43;;;;;;;10.30;9.40;;;;;;;19.72;58.30;98457.28;106081;1253;61231;-78
2023/05/21 09:34:15;;;;;;;10.10;9.30;;;;;;;19.74;58.34;98452.97;105965;1253;76989;-78
2023/05/21 09:36:44;;;;;;;10.30;9.50;;;;;;;19.73;58.28;98453.20;106027;1253;70064;-79
2023/05/21 09:39:15;;;;;;;10.70;9.90;;;;;;;19.73;58.23;98459.59;105973;1253;73938;-79
2023/05/21 09:41:43;;;;;;;10.80;10.00;;;;;;;19.73;58.25;98455.20;105771;1254;61436;-78
2023/05/21 09:44:10;;;;;;;9.80;8.90;;;;;;;19.74;58.24;98450.58;105908;1260;62304;-77
2023/05/21 09:46:41;;;;;;;10.80;9.80;;;;;;;19.73;58.25;98450.64;105912;1258;76821;-79
2023/05/21 09:49:25;;;;;;;11.90;10.90;;;;;;;19.73;58.29;98449.73;105649;1253;70697;-78
2023/05/21 09:51:57;;;;;;;10.70;9.90;;;;;;;19.74;58.23;98449.84;105796;1261;74349;-79
2023/05/21 09:54:29;;;;;;;11.00;10.10;;;;;;;19.74;58.21;98449.98;105994;1258;61327;-78
2023/05/21 09:57:03;;;;;;;11.30;10.30;;;;;;;19.75;58.31;98447.42;106100;1253;62249;-79
2023/05/21 09:59:37;;;;;;;10.70;9.80;;;;;;;19.74;58.22;98445.45;106066;1257;76746;-79
2023/05/21 10:02:36;;;;;;;10.70;9.80;;;;;;;19.74;58.23;98444.39;106008;1256;69830;-77
2023/05/21 10:05:04;;;;;;;10.80;9.70;;;;;;;19.74;58.16;98440.03;105819;1255;73446;-78
2023/05/21 10:07:32;;;;;;;10.20;9.40;;;;;;;19.74;58.12;98442.58;106129;1260;62326;-77
2023/05/21 10:10:00;;;;;;;10.20;9.30;;;;;;;19.74;58.13;98444.94;106240;1255;61286;-78
2023/05/21 10:12:28;;;;;;;10.90;10.00;;;;;;;19.74;58.12;98442.55;105680;1263;76633;-78
2023/05/21 10:15:00;;;;;;;10.30;9.50;;;;;;;19.74;58.19;98443.60;105712;1256;70399;-78
2023/05/21 10:17:29;;;;;;;10.00;9.20;;;;;;;19.75;58.13;98441.94;105920;1256;74570;-78
2023/05/21 10:19:57;;;;;;;9.70;8.90;;;;;;;19.75;58.12;98435.77;105868;1261;61471;-78
2023/05/21 10:22:24;;;;;;;11.10;10.20;;;;;;;19.75;58.17;98433.02;105751;1254;61321;-78
2023/05/21 10:24:52;;;;;;;9.30;8.60;;;;;;;19.75;58.07;98437.54;105875;1256;76393;-78
2023/05/21 10:27:21;;;;;;;9.60;8.90;;;;;;;19.75;58.06;98431.34;105968;1254;70711;-78
2023/05/21 10:29:49;;;;;;;9.90;9.00;;;;;;;19.76;58.10;98430.04;105889;1259;75017;-79
2023/05/21 10:32:17;;;;;;;9.70;9.00;;;;;;;19.76;57.99;98427.88;105716;1256;62103;-78
2023/05/21 10:34:45;;;;;;;10.30;9.40;;;;;;;19.75;58.07;98426.24;105727;1256;61782;-76
2023/05/21 10:37:13;;;;;;;9.60;8.80;;;;;;;19.76;58.05;98421.89;105886;1254;76940;-78
2023/05/21 10:39:41;;;;;;;10.30;9.40;;;;;;;19.76;58.07;98421.14;105883;1258;69905;-78
2023/05/21 10:42:31;;;;;;;9.70;8.90;;;;;;;19.76;58.06;98423.32;105500;1255;72752;-79
2023/05/21 10:45:15;;;;;;;8.80;8.10;;;;;;;19.76;58.07;98422.97;105810;1256;62027;-78
2023/05/21 10:47:43;;;;;;;9.50;8.70;;;;;;;19.76;58.04;98418.21;105858;1256;62425;-77
2023/05/21 10:50:29;;;;;;;9.10;8.30;;;;;;;19.76;58.02;98417.30;105872;1260;76571;-77
2023/05/21 10:53:16;;;;;;;9.30;8.50;;;;;;;19.76;58.03;98404.20;105859;1262;71056;-78
2023/05/21 10:56:03;;;;;;;9.40;8.50;;;;;;;19.76;58.09;98400.98;105867;1261;73713;-78
2023/05/21 10:59:05;;;;;;;9.20;8.50;;;;;;;19.76;58.04;98404.40;105826;1256;61614;-78
2023/05/21 11:01:34;;;;;;;9.30;8.60;;;;;;;19.75;58.06;98406.61;105967;1256;61265;-79
2023/05/21 11:04:05;;;;;;;8.90;8.20;;;;;;;19.76;58.08;98395.89;105938;1256;76889;-78
2023/05/21 11:06:33;;;;;;;9.70;8.80;;;;;;;19.76;57.99;98401.70;105899;1260;69916;-78
2023/05/21 11:09:22;;;;;;;9.40;8.60;;;;;;;19.76;57.96;98397.64;105713;1256;74762;-79
2023/05/21 11:11:52;;;;;;;9.20;8.50;;;;;;;19.76;57.98;98395.33;105855;1259;61354;-78
2023/05/21 11:14:56;;;;;;;8.80;8.10;;;;;;;19.76;58.00;98392.95;105933;1260;61250;-80
2023/05/21 11:17:40;;;;;;;9.20;8.40;;;;;;;19.77;57.95;98387.48;105712;1254;77136;-80
2023/05/21 11:20:13;;;;;;;8.70;8.00;;;;;;;19.76;57.95;98384.94;105789;1256;69069;-80
2023/05/21 11:22:40;;;;;;;8.20;7.60;;;;;;;19.77;57.94;98388.88;105758;1256;73531;-80
2023/05/21 11:25:08;;;;;;;9.30;8.50;;;;;;;19.77;58.02;98386.31;105772;1262;61417;-80
2023/05/21 11:27:37;;;;;;;8.80;8.10;;;;;;;19.77;57.94;98387.04;105740;1254;62083;-80
2023/05/21 11:30:07;;;;;;;8.20;7.50;;;;;;;19.77;57.99;98381.38;105811;1260;76651;-79
2023/05/21 11:32:39;;;;;;;9.50;8.70;;;;;;;19.78;57.89;98379.71;105853;1258;71167;-80
2023/05/21 11:35:07;;;;;;;9.10;8.40;;;;;;;19.78;57.87;98375.48;105707;1256;74744;-80
2023/05/21 11:37:39;;;;;;;8.50;7.80;;;;;;;19.78;57.95;98374.73;105703;1256;62429;-80